sensor_id;sensor_type;location;lat;lon;timestamp;temperature;humidity
64939;DHT22;51453;47.738;7.420;2023-08-20T00:00:27;24.90;99.90
64939;DHT22;51453;47.738;7.420;2023-08-20T00:02:59;24.90;99.90
64939;DHT22;51453;47.738;7.420;2023-08-20T00:05:28;24.90;99.90
64939;DHT22;51453;47.738;7.420;2023-08-20T00:07:54;24.80;99.90
64939;DHT22;51453;47.738;7.420;2023-08-20T00:10:20;24.70;99.90
64939;DHT22;51453;47.738;7.420;2023-08-20T00:12:45;24.70;99.90
64939;DHT22;51453;47.738;7.420;2023-08-20T00:15:11;24.70;99.90
64939;DHT22;51453;47.738;7.420;2023-08-20T00:17:39;24.70;99.90
64939;DHT22;51453;47.738;7.420;2023-08-20T00:20:07;24.70;99.90
64939;DHT22;51453;47.738;7.420;2023-08-20T00:22:36;24.70;99.90
64939;DHT22;51453;47.738;7.420;2023-08-20T00:25:03;24.60;99.90
64939;DHT22;51453;47.738;7.420;2023-08-20T00:27:29;24.60;99.90
64939;DHT22;51453;47.738;7.420;2023-08-20T00:29:55;24.50;99.90
64939;DHT22;51453;47.738;7.420;2023-08-20T00:32:21;24.50;99.90
64939;DHT22;51453;47.738;7.420;2023-08-20T00:34:46;24.40;99.90
64939;DHT22;51453;47.738;7.420;2023-08-20T00:37:12;24.40;99.90
64939;DHT22;51453;47.738;7.420;2023-08-20T00:39:38;24.40;99.90
64939;DHT22;51453;47.738;7.420;2023-08-20T00:42:04;24.40;99.90
64939;DHT22;51453;47.738;7.420;2023-08-20T00:44:30;24.30;99.90
64939;DHT22;51453;47.738;7.420;2023-08-20T00:46:56;24.30;99.90
64939;DHT22;51453;47.738;7.420;2023-08-20T00:49:22;24.30;99.90
64939;DHT22;51453;47.738;7.420;2023-08-20T00:51:48;24.30;99.90
64939;DHT22;51453;47.738;7.420;2023-08-20T00:54:14;24.30;99.90
64939;DHT22;51453;47.738;7.420;2023-08-20T00:56:40;24.30;99.90
64939;DHT22;51453;47.738;7.420;2023-08-20T00:59:06;24.20;99.90
64939;DHT22;51453;47.738;7.420;2023-08-20T01:01:32;24.20;99.90
64939;DHT22;51453;47.738;7.420;2023-08-20T01:03:57;24.20;99.90
64939;DHT22;51453;47.738;7.420;2023-08-20T01:06:38;24.20;99.90
64939;DHT22;51453;47.738;7.420;2023-08-20T01:09:29;24.10;99.90
64939;DHT22;51453;47.738;7.420;2023-08-20T01:12:00;24.10;99.90
64939;DHT22;51453;47.738;7.420;2023-08-20T01:14:26;24.00;99.90
64939;DHT22;51453;47.738;7.420;2023-08-20T01:16:52;24.00;99.90
64939;DHT22;51453;47.738;7.420;2023-08-20T01:19:19;24.00;99.90
64939;DHT22;51453;47.738;7.420;2023-08-20T01:30:09;23.90;99.90
64939;DHT22;51453;47.738;7.420;2023-08-20T01:32:36;23.80;99.90
64939;DHT22;51453;47.738;7.420;2023-08-20T01:35:02;23.80;99.90
64939;DHT22;51453;47.738;7.420;2023-08-20T01:37:28;23.80;99.90
64939;DHT22;51453;47.738;7.420;2023-08-20T01:39:54;23.80;99.90
64939;DHT22;51453;47.738;7.420;2023-08-20T01:42:20;23.70;99.90
64939;DHT22;51453;47.738;7.420;2023-08-20T01:44:45;23.70;99.90
64939;DHT22;51453;47.738;7.420;2023-08-20T01:47:12;23.70;99.90
64939;DHT22;51453;47.738;7.420;2023-08-20T01:49:38;23.70;99.90
64939;DHT22;51453;47.738;7.420;2023-08-20T01:52:03;23.70;99.90
64939;DHT22;51453;47.738;7.420;2023-08-20T01:54:29;23.60;99.90
64939;DHT22;51453;47.738;7.420;2023-08-20T01:56:55;23.60;99.90
64939;DHT22;51453;47.738;7.420;2023-08-20T01:59:22;23.60;99.90
64939;DHT22;51453;47.738;7.420;2023-08-20T02:01:48;23.50;99.90
64939;DHT22;51453;47.738;7.420;2023-08-20T02:04:13;23.50;99.90
64939;DHT22;51453;47.738;7.420;2023-08-20T02:06:39;23.50;99.90
64939;DHT22;51453;47.738;7.420;2023-08-20T02:09:04;23.50;99.90
64939;DHT22;51453;47.738;7.420;2023-08-20T02:11:30;23.50;99.90
64939;DHT22;51453;47.738;7.420;2023-08-20T02:13:58;23.50;99.90
64939;DHT22;51453;47.738;7.420;2023-08-20T02:16:24;23.50;99.90
64939;DHT22;51453;47.738;7.420;2023-08-20T02:18:49;23.40;99.90
64939;DHT22;51453;47.738;7.420;2023-08-20T02:21:15;23.40;99.90
64939;DHT22;51453;47.738;7.420;2023-08-20T02:23:40;23.40;99.90
64939;DHT22;51453;47.738;7.420;2023-08-20T02:26:06;23.30;99.90
64939;DHT22;51453;47.738;7.420;2023-08-20T02:28:32;23.40;99.90
64939;DHT22;51453;47.738;7.420;2023-08-20T02:30:57;23.30;99.90
64939;DHT22;51453;47.738;7.420;2023-08-20T02:33:25;23.30;99.90
64939;DHT22;51453;47.738;7.420;2023-08-20T02:35:50;23.30;99.90
64939;DHT22;51453;47.738;7.420;2023-08-20T02:38:16;23.30;99.90
64939;DHT22;51453;47.738;7.420;2023-08-20T02:40:42;23.30;99.90
64939;DHT22;51453;47.738;7.420;2023-08-20T02:43:08;23.30;99.90
64939;DHT22;51453;47.738;7.420;2023-08-20T02:45:40;23.30;99.90
64939;DHT22;51453;47.738;7.420;2023-08-20T02:48:06;23.20;99.90
64939;DHT22;51453;47.738;7.420;2023-08-20T02:50:32;23.30;99.90
64939;DHT22;51453;47.738;7.420;2023-08-20T02:52:57;23.30;99.90
64939;DHT22;51453;47.738;7.420;2023-08-20T02:55:23;23.30;99.90
64939;DHT22;51453;47.738;7.420;2023-08-20T02:57:48;23.20;99.90
64939;DHT22;51453;47.738;7.420;2023-08-20T03:00:14;23.20;99.90
64939;DHT22;51453;47.738;7.420;2023-08-20T03:02:41;23.20;99.90
64939;DHT22;51453;47.738;7.420;2023-08-20T03:05:08;23.20;99.90
64939;DHT22;51453;47.738;7.420;2023-08-20T03:07:34;23.20;99.90
64939;DHT22;51453;47.738;7.420;2023-08-20T03:10:00;23.20;99.90
64939;DHT22;51453;47.738;7.420;2023-08-20T03:12:25;23.20;99.90
64939;DHT22;51453;47.738;7.420;2023-08-20T03:14:51;23.20;99.90
64939;DHT22;51453;47.738;7.420;2023-08-20T03:17:16;23.20;99.90
64939;DHT22;51453;47.738;7.420;2023-08-20T03:19:54;23.20;99.90
64939;DHT22;51453;47.738;7.420;2023-08-20T03:22:21;23.20;99.90
64939;DHT22;51453;47.738;7.420;2023-08-20T03:24:47;23.20;99.90
64939;DHT22;51453;47.738;7.420;2023-08-20T03:27:13;23.20;99.90
64939;DHT22;51453;47.738;7.420;2023-08-20T03:29:38;23.10;99.90
64939;DHT22;51453;47.738;7.420;2023-08-20T03:32:04;23.10;99.90
64939;DHT22;51453;47.738;7.420;2023-08-20T03:34:30;23.20;99.90
64939;DHT22;51453;47.738;7.420;2023-08-20T03:36:55;23.20;99.90
64939;DHT22;51453;47.738;7.420;2023-08-20T03:39:21;23.20;99.90
64939;DHT22;51453;47.738;7.420;2023-08-20T03:41:47;23.20;99.90
64939;DHT22;51453;47.738;7.420;2023-08-20T03:44:12;23.20;99.90
64939;DHT22;51453;47.738;7.420;2023-08-20T03:46:38;23.20;99.90
64939;DHT22;51453;47.738;7.420;2023-08-20T03:49:04;23.20;99.90
64939;DHT22;51453;47.738;7.420;2023-08-20T03:51:29;23.20;99.90
64939;DHT22;51453;47.738;7.420;2023-08-20T03:53:55;23.20;99.90
64939;DHT22;51453;47.738;7.420;2023-08-20T03:56:20;23.20;99.90
64939;DHT22;51453;47.738;7.420;2023-08-20T03:58:46;23.20;99.90
64939;DHT22;51453;47.738;7.420;2023-08-20T04:01:14;23.20;99.90
64939;DHT22;51453;47.738;7.420;2023-08-20T04:03:40;23.20;99.90
64939;DHT22;51453;47.738;7.420;2023-08-20T04:06:05;23.20;99.90
64939;DHT22;51453;47.738;7.420;2023-08-20T04:08:32;23.10;99.90
64939;DHT22;51453;47.738;7.420;2023-08-20T04:10:58;23.00;99.90
64939;DHT22;51453;47.738;7.420;2023-08-20T04:13:24;23.00;99.90
64939;DHT22;51453;47.738;7.420;2023-08-20T04:15:51;22.90;99.90
64939;DHT22;51453;47.738;7.420;2023-08-20T04:18:17;22.90;99.90
64939;DHT22;51453;47.738;7.420;2023-08-20T04:20:42;22.80;99.90
64939;DHT22;51453;47.738;7.420;2023-08-20T04:23:08;22.70;99.90
64939;DHT22;51453;47.738;7.420;2023-08-20T04:25:34;22.70;99.90
64939;DHT22;51453;47.738;7.420;2023-08-20T04:27:59;22.60;99.90
64939;DHT22;51453;47.738;7.420;2023-08-20T04:30:25;22.60;99.90
64939;DHT22;51453;47.738;7.420;2023-08-20T04:32:50;22.60;99.90
64939;DHT22;51453;47.738;7.420;2023-08-20T04:35:16;22.50;99.90
64939;DHT22;51453;47.738;7.420;2023-08-20T04:37:42;22.50;99.90
64939;DHT22;51453;47.738;7.420;2023-08-20T04:40:08;22.50;99.90
64939;DHT22;51453;47.738;7.420;2023-08-20T04:42:33;22.50;99.90
64939;DHT22;51453;47.738;7.420;2023-08-20T04:44:59;22.50;99.90
64939;DHT22;51453;47.738;7.420;2023-08-20T04:47:25;22.50;99.90
64939;DHT22;51453;47.738;7.420;2023-08-20T04:49:50;22.40;99.90
64939;DHT22;51453;47.738;7.420;2023-08-20T04:52:16;22.40;99.90
64939;DHT22;51453;47.738;7.420;2023-08-20T04:54:41;22.40;99.90
64939;DHT22;51453;47.738;7.420;2023-08-20T04:57:07;22.40;99.90
64939;DHT22;51453;47.738;7.420;2023-08-20T04:59:33;22.40;99.90
64939;DHT22;51453;47.738;7.420;2023-08-20T05:01:58;22.40;99.90
64939;DHT22;51453;47.738;7.420;2023-08-20T05:04:24;22.40;99.90
64939;DHT22;51453;47.738;7.420;2023-08-20T05:06:50;22.40;99.90
64939;DHT22;51453;47.738;7.420;2023-08-20T05:09:18;22.40;99.90
64939;DHT22;51453;47.738;7.420;2023-08-20T05:11:44;22.40;99.90
64939;DHT22;51453;47.738;7.420;2023-08-20T05:14:10;22.40;99.90
64939;DHT22;51453;47.738;7.420;2023-08-20T05:16:35;22.40;99.90
64939;DHT22;51453;47.738;7.420;2023-08-20T05:19:01;22.40;99.90
64939;DHT22;51453;47.738;7.420;2023-08-20T05:21:26;22.50;99.90
64939;DHT22;51453;47.738;7.420;2023-08-20T05:23:52;22.50;99.90
64939;DHT22;51453;47.738;7.420;2023-08-20T05:26:18;22.60;99.90
64939;DHT22;51453;47.738;7.420;2023-08-20T05:28:43;22.60;99.90
64939;DHT22;51453;47.738;7.420;2023-08-20T05:31:09;22.70;99.90
64939;DHT22;51453;47.738;7.420;2023-08-20T05:33:36;22.80;99.90
64939;DHT22;51453;47.738;7.420;2023-08-20T05:36:01;22.80;99.90
64939;DHT22;51453;47.738;7.420;2023-08-20T05:38:27;22.80;99.90
64939;DHT22;51453;47.738;7.420;2023-08-20T05:40:53;22.90;99.90
64939;DHT22;51453;47.738;7.420;2023-08-20T05:43:18;22.90;99.90
64939;DHT22;51453;47.738;7.420;2023-08-20T05:45:44;22.90;99.90
64939;DHT22;51453;47.738;7.420;2023-08-20T05:48:10;23.00;99.90
64939;DHT22;51453;47.738;7.420;2023-08-20T05:50:35;23.00;99.90
64939;DHT22;51453;47.738;7.420;2023-08-20T05:53:01;23.10;99.90
64939;DHT22;51453;47.738;7.420;2023-08-20T05:55:26;23.20;99.90
64939;DHT22;51453;47.738;7.420;2023-08-20T05:57:52;23.30;99.90
64939;DHT22;51453;47.738;7.420;2023-08-20T06:00:18;23.50;99.90
64939;DHT22;51453;47.738;7.420;2023-08-20T06:02:44;23.60;99.90
64939;DHT22;51453;47.738;7.420;2023-08-20T06:05:10;23.80;99.90
64939;DHT22;51453;47.738;7.420;2023-08-20T06:07:35;24.00;99.90
64939;DHT22;51453;47.738;7.420;2023-08-20T06:10:01;24.20;99.90
64939;DHT22;51453;47.738;7.420;2023-08-20T06:12:27;24.30;99.90
64939;DHT22;51453;47.738;7.420;2023-08-20T06:14:52;24.60;99.90
64939;DHT22;51453;47.738;7.420;2023-08-20T06:17:18;24.70;99.90
64939;DHT22;51453;47.738;7.420;2023-08-20T06:19:44;24.90;99.90
64939;DHT22;51453;47.738;7.420;2023-08-20T06:22:10;24.90;99.90
64939;DHT22;51453;47.738;7.420;2023-08-20T06:24:36;24.90;99.90
64939;DHT22;51453;47.738;7.420;2023-08-20T06:27:01;24.90;99.90
64939;DHT22;51453;47.738;7.420;2023-08-20T06:29:27;24.80;99.90
64939;DHT22;51453;47.738;7.420;2023-08-20T06:31:52;24.70;99.90
64939;DHT22;51453;47.738;7.420;2023-08-20T06:34:18;24.60;99.90
64939;DHT22;51453;47.738;7.420;2023-08-20T06:36:44;24.50;99.90
64939;DHT22;51453;47.738;7.420;2023-08-20T06:39:10;24.50;99.90
64939;DHT22;51453;47.738;7.420;2023-08-20T06:41:36;24.40;99.90
64939;DHT22;51453;47.738;7.420;2023-08-20T06:44:02;24.40;99.90
64939;DHT22;51453;47.738;7.420;2023-08-20T06:46:28;24.30;99.90
64939;DHT22;51453;47.738;7.420;2023-08-20T06:48:54;24.30;99.90
64939;DHT22;51453;47.738;7.420;2023-08-20T06:51:20;24.30;99.90
64939;DHT22;51453;47.738;7.420;2023-08-20T06:53:49;24.40;99.90
64939;DHT22;51453;47.738;7.420;2023-08-20T06:56:15;24.50;99.90
64939;DHT22;51453;47.738;7.420;2023-08-20T06:58:42;24.70;99.90
64939;DHT22;51453;47.738;7.420;2023-08-20T07:01:08;24.80;99.90
64939;DHT22;51453;47.738;7.420;2023-08-20T07:06:00;25.10;99.90
64939;DHT22;51453;47.738;7.420;2023-08-20T07:08:25;25.20;99.90
64939;DHT22;51453;47.738;7.420;2023-08-20T07:10:51;25.20;99.90
64939;DHT22;51453;47.738;7.420;2023-08-20T07:13:17;25.30;99.90
64939;DHT22;51453;47.738;7.420;2023-08-20T07:15:42;25.30;99.90
64939;DHT22;51453;47.738;7.420;2023-08-20T07:18:08;25.40;99.90
64939;DHT22;51453;47.738;7.420;2023-08-20T07:20:33;25.40;99.90
64939;DHT22;51453;47.738;7.420;2023-08-20T07:22:59;25.60;99.90
64939;DHT22;51453;47.738;7.420;2023-08-20T07:25:25;25.70;99.90
64939;DHT22;51453;47.738;7.420;2023-08-20T07:27:50;25.70;99.90
64939;DHT22;51453;47.738;7.420;2023-08-20T07:30:16;25.80;99.90
64939;DHT22;51453;47.738;7.420;2023-08-20T07:32:42;26.00;99.90
64939;DHT22;51453;47.738;7.420;2023-08-20T07:35:07;26.10;99.90
64939;DHT22;51453;47.738;7.420;2023-08-20T07:37:34;26.20;99.90
64939;DHT22;51453;47.738;7.420;2023-08-20T07:39:59;26.30;99.90
64939;DHT22;51453;47.738;7.420;2023-08-20T07:42:25;26.30;99.90
64939;DHT22;51453;47.738;7.420;2023-08-20T07:44:50;26.40;99.90
64939;DHT22;51453;47.738;7.420;2023-08-20T07:47:16;26.40;99.90
64939;DHT22;51453;47.738;7.420;2023-08-20T07:49:41;26.50;99.90
64939;DHT22;51453;47.738;7.420;2023-08-20T07:52:07;26.50;99.90
64939;DHT22;51453;47.738;7.420;2023-08-20T07:54:33;26.60;99.90
64939;DHT22;51453;47.738;7.420;2023-08-20T07:56:58;26.70;99.90
64939;DHT22;51453;47.738;7.420;2023-08-20T07:59:24;26.90;99.90
64939;DHT22;51453;47.738;7.420;2023-08-20T08:01:50;27.00;99.90
64939;DHT22;51453;47.738;7.420;2023-08-20T08:04:15;27.10;99.90
64939;DHT22;51453;47.738;7.420;2023-08-20T08:06:41;27.10;99.90
64939;DHT22;51453;47.738;7.420;2023-08-20T08:09:27;27.30;99.90
64939;DHT22;51453;47.738;7.420;2023-08-20T08:11:53;27.30;99.90
64939;DHT22;51453;47.738;7.420;2023-08-20T08:14:19;27.20;99.90
64939;DHT22;51453;47.738;7.420;2023-08-20T08:16:46;27.20;99.90
64939;DHT22;51453;47.738;7.420;2023-08-20T08:19:12;27.40;99.90
64939;DHT22;51453;47.738;7.420;2023-08-20T08:21:37;27.50;99.90
64939;DHT22;51453;47.738;7.420;2023-08-20T08:24:04;27.50;99.90
64939;DHT22;51453;47.738;7.420;2023-08-20T08:26:31;27.60;99.90
64939;DHT22;51453;47.738;7.420;2023-08-20T08:28:56;27.60;99.90
64939;DHT22;51453;47.738;7.420;2023-08-20T08:31:23;27.70;99.90
64939;DHT22;51453;47.738;7.420;2023-08-20T08:33:49;27.80;99.90
64939;DHT22;51453;47.738;7.420;2023-08-20T08:36:14;27.90;99.90
64939;DHT22;51453;47.738;7.420;2023-08-20T08:38:42;27.90;99.90
64939;DHT22;51453;47.738;7.420;2023-08-20T08:41:11;27.90;99.90
64939;DHT22;51453;47.738;7.420;2023-08-20T08:43:38;27.90;99.90
64939;DHT22;51453;47.738;7.420;2023-08-20T08:46:14;27.80;99.90
64939;DHT22;51453;47.738;7.420;2023-08-20T08:48:42;27.70;99.90
64939;DHT22;51453;47.738;7.420;2023-08-20T08:51:08;27.60;99.90
64939;DHT22;51453;47.738;7.420;2023-08-20T08:53:34;27.50;99.90
64939;DHT22;51453;47.738;7.420;2023-08-20T08:56:00;27.60;99.90
64939;DHT22;51453;47.738;7.420;2023-08-20T08:58:26;27.80;99.90
64939;DHT22;51453;47.738;7.420;2023-08-20T09:00:52;27.90;99.90
64939;DHT22;51453;47.738;7.420;2023-08-20T09:03:18;28.00;99.90
64939;DHT22;51453;47.738;7.420;2023-08-20T09:05:50;28.00;99.90
64939;DHT22;51453;47.738;7.420;2023-08-20T09:08:22;27.90;99.90
64939;DHT22;51453;47.738;7.420;2023-08-20T09:10:52;27.90;99.90
64939;DHT22;51453;47.738;7.420;2023-08-20T09:13:26;28.00;99.90
64939;DHT22;51453;47.738;7.420;2023-08-20T09:15:57;28.10;99.90
64939;DHT22;51453;47.738;7.420;2023-08-20T09:18:23;28.30;99.90
64939;DHT22;51453;47.738;7.420;2023-08-20T09:20:49;28.40;99.90
64939;DHT22;51453;47.738;7.420;2023-08-20T09:23:15;28.60;99.90
64939;DHT22;51453;47.738;7.420;2023-08-20T09:25:41;28.60;99.90
64939;DHT22;51453;47.738;7.420;2023-08-20T09:28:07;28.60;99.90
64939;DHT22;51453;47.738;7.420;2023-08-20T09:30:33;28.60;99.90
64939;DHT22;51453;47.738;7.420;2023-08-20T09:33:11;28.60;99.90
64939;DHT22;51453;47.738;7.420;2023-08-20T09:35:37;28.70;99.90
64939;DHT22;51453;47.738;7.420;2023-08-20T09:38:04;28.80;99.90
64939;DHT22;51453;47.738;7.420;2023-08-20T09:40:30;28.70;99.90
64939;DHT22;51453;47.738;7.420;2023-08-20T09:42:56;28.70;99.90
64939;DHT22;51453;47.738;7.420;2023-08-20T09:45:28;28.80;99.90
64939;DHT22;51453;47.738;7.420;2023-08-20T09:47:58;28.90;99.90
64939;DHT22;51453;47.738;7.420;2023-08-20T09:50:25;29.00;99.90
64939;DHT22;51453;47.738;7.420;2023-08-20T09:52:58;29.20;99.90
64939;DHT22;51453;47.738;7.420;2023-08-20T09:55:32;29.40;99.90
64939;DHT22;51453;47.738;7.420;2023-08-20T09:58:01;29.60;99.90
64939;DHT22;51453;47.738;7.420;2023-08-20T10:00:27;29.60;99.90
64939;DHT22;51453;47.738;7.420;2023-08-20T10:02:54;29.70;99.90
64939;DHT22;51453;47.738;7.420;2023-08-20T10:05:20;29.80;99.90
64939;DHT22;51453;47.738;7.420;2023-08-20T10:07:49;29.90;99.90
64939;DHT22;51453;47.738;7.420;2023-08-20T10:10:15;29.90;99.90
64939;DHT22;51453;47.738;7.420;2023-08-20T10:12:42;29.80;99.90
64939;DHT22;51453;47.738;7.420;2023-08-20T10:15:11;29.90;99.90
64939;DHT22;51453;47.738;7.420;2023-08-20T10:17:39;30.00;99.90
64939;DHT22;51453;47.738;7.420;2023-08-20T10:20:05;30.00;99.90
64939;DHT22;51453;47.738;7.420;2023-08-20T10:22:42;30.10;99.90
64939;DHT22;51453;47.738;7.420;2023-08-20T10:25:10;30.20;99.90
64939;DHT22;51453;47.738;7.420;2023-08-20T10:27:40;30.20;99.90
64939;DHT22;51453;47.738;7.420;2023-08-20T10:30:09;30.30;99.90
64939;DHT22;51453;47.738;7.420;2023-08-20T10:32:50;30.30;99.90
64939;DHT22;51453;47.738;7.420;2023-08-20T10:40:56;30.40;99.90
64939;DHT22;51453;47.738;7.420;2023-08-20T10:43:31;30.40;99.90
64939;DHT22;51453;47.738;7.420;2023-08-20T10:48:29;30.50;99.90
64939;DHT22;51453;47.738;7.420;2023-08-20T10:50:56;30.50;99.90
64939;DHT22;51453;47.738;7.420;2023-08-20T10:53:22;30.50;99.90
64939;DHT22;51453;47.738;7.420;2023-08-20T10:55:50;30.60;99.90
64939;DHT22;51453;47.738;7.420;2023-08-20T10:58:17;30.60;99.90
64939;DHT22;51453;47.738;7.420;2023-08-20T11:00:42;30.70;99.90
64939;DHT22;51453;47.738;7.420;2023-08-20T11:03:08;30.70;99.90
64939;DHT22;51453;47.738;7.420;2023-08-20T11:05:34;30.70;99.90
64939;DHT22;51453;47.738;7.420;2023-08-20T11:08:01;30.70;99.90
64939;DHT22;51453;47.738;7.420;2023-08-20T11:10:29;30.70;99.90
64939;DHT22;51453;47.738;7.420;2023-08-20T11:12:54;30.70;99.90
64939;DHT22;51453;47.738;7.420;2023-08-20T11:15:20;30.70;99.90
64939;DHT22;51453;47.738;7.420;2023-08-20T11:17:47;30.80;99.90
64939;DHT22;51453;47.738;7.420;2023-08-20T11:20:16;30.90;99.90
64939;DHT22;51453;47.738;7.420;2023-08-20T11:22:42;31.00;99.90
64939;DHT22;51453;47.738;7.420;2023-08-20T11:25:11;31.00;99.90
64939;DHT22;51453;47.738;7.420;2023-08-20T11:27:42;31.00;99.90
64939;DHT22;51453;47.738;7.420;2023-08-20T11:30:11;30.90;99.90
64939;DHT22;51453;47.738;7.420;2023-08-20T11:32:40;30.90;99.90
64939;DHT22;51453;47.738;7.420;2023-08-20T11:35:07;31.10;99.90
64939;DHT22;51453;47.738;7.420;2023-08-20T11:37:33;31.20;99.90
64939;DHT22;51453;47.738;7.420;2023-08-20T11:39:59;31.20;99.90
64939;DHT22;51453;47.738;7.420;2023-08-20T11:42:25;31.30;99.90
64939;DHT22;51453;47.738;7.420;2023-08-20T11:44:55;31.30;99.90
64939;DHT22;51453;47.738;7.420;2023-08-20T11:47:21;31.40;99.90
64939;DHT22;51453;47.738;7.420;2023-08-20T11:49:46;31.40;99.90
64939;DHT22;51453;47.738;7.420;2023-08-20T11:52:12;31.50;99.90
64939;DHT22;51453;47.738;7.420;2023-08-20T11:54:42;31.50;99.90
64939;DHT22;51453;47.738;7.420;2023-08-20T11:57:08;31.60;99.90
64939;DHT22;51453;47.738;7.420;2023-08-20T11:59:34;31.70;99.90
64939;DHT22;51453;47.738;7.420;2023-08-20T12:02:01;31.80;99.90
64939;DHT22;51453;47.738;7.420;2023-08-20T12:04:28;31.80;99.90
64939;DHT22;51453;47.738;7.420;2023-08-20T12:07:10;31.90;99.90
64939;DHT22;51453;47.738;7.420;2023-08-20T12:09:38;31.90;99.90
64939;DHT22;51453;47.738;7.420;2023-08-20T12:12:06;31.90;99.90
64939;DHT22;51453;47.738;7.420;2023-08-20T12:14:32;31.80;99.90
64939;DHT22;51453;47.738;7.420;2023-08-20T12:16:58;31.80;99.90
64939;DHT22;51453;47.738;7.420;2023-08-20T12:19:24;31.90;99.90
64939;DHT22;51453;47.738;7.420;2023-08-20T12:21:50;31.90;99.90
64939;DHT22;51453;47.738;7.420;2023-08-20T12:24:16;31.90;99.90
64939;DHT22;51453;47.738;7.420;2023-08-20T12:26:42;32.10;99.90
64939;DHT22;51453;47.738;7.420;2023-08-20T12:29:08;32.20;99.90
64939;DHT22;51453;47.738;7.420;2023-08-20T12:31:34;32.20;99.90
64939;DHT22;51453;47.738;7.420;2023-08-20T12:34:01;32.30;99.90
64939;DHT22;51453;47.738;7.420;2023-08-20T12:36:27;32.30;99.90
64939;DHT22;51453;47.738;7.420;2023-08-20T12:38:52;32.40;99.90
64939;DHT22;51453;47.738;7.420;2023-08-20T12:41:21;32.50;99.90
64939;DHT22;51453;47.738;7.420;2023-08-20T12:43:47;32.50;99.90
64939;DHT22;51453;47.738;7.420;2023-08-20T12:46:12;32.40;99.90
64939;DHT22;51453;47.738;7.420;2023-08-20T12:48:39;32.40;99.90
64939;DHT22;51453;47.738;7.420;2023-08-20T12:51:05;32.50;99.90
64939;DHT22;51453;47.738;7.420;2023-08-20T12:53:31;32.60;99.90
64939;DHT22;51453;47.738;7.420;2023-08-20T12:55:57;32.60;99.90
64939;DHT22;51453;47.738;7.420;2023-08-20T12:58:22;32.70;99.90
64939;DHT22;51453;47.738;7.420;2023-08-20T13:00:48;32.80;99.90
64939;DHT22;51453;47.738;7.420;2023-08-20T13:03:14;32.80;99.90
64939;DHT22;51453;47.738;7.420;2023-08-20T13:05:40;32.80;99.90
64939;DHT22;51453;47.738;7.420;2023-08-20T13:08:06;32.80;99.90
64939;DHT22;51453;47.738;7.420;2023-08-20T13:10:32;32.90;99.90
64939;DHT22;51453;47.738;7.420;2023-08-20T13:13:01;32.80;99.90
64939;DHT22;51453;47.738;7.420;2023-08-20T13:15:27;32.80;99.90
64939;DHT22;51453;47.738;7.420;2023-08-20T13:17:53;32.80;99.90
64939;DHT22;51453;47.738;7.420;2023-08-20T13:20:19;32.80;99.90
64939;DHT22;51453;47.738;7.420;2023-08-20T13:22:48;32.90;99.90
64939;DHT22;51453;47.738;7.420;2023-08-20T13:25:14;32.90;99.90
64939;DHT22;51453;47.738;7.420;2023-08-20T13:27:40;32.80;99.90
64939;DHT22;51453;47.738;7.420;2023-08-20T13:30:07;33.00;99.90
64939;DHT22;51453;47.738;7.420;2023-08-20T13:32:34;33.00;99.90
64939;DHT22;51453;47.738;7.420;2023-08-20T13:35:00;33.10;99.90
64939;DHT22;51453;47.738;7.420;2023-08-20T13:37:25;33.00;99.90
64939;DHT22;51453;47.738;7.420;2023-08-20T13:39:51;33.00;99.90
64939;DHT22;51453;47.738;7.420;2023-08-20T13:42:16;32.80;99.90
64939;DHT22;51453;47.738;7.420;2023-08-20T13:44:42;32.80;99.90
64939;DHT22;51453;47.738;7.420;2023-08-20T13:47:08;32.80;99.90
64939;DHT22;51453;47.738;7.420;2023-08-20T13:49:34;32.80;99.90
64939;DHT22;51453;47.738;7.420;2023-08-20T13:52:00;33.00;99.90
64939;DHT22;51453;47.738;7.420;2023-08-20T13:54:25;33.00;99.90
64939;DHT22;51453;47.738;7.420;2023-08-20T13:56:51;33.00;99.90
64939;DHT22;51453;47.738;7.420;2023-08-20T13:59:17;33.10;99.90
64939;DHT22;51453;47.738;7.420;2023-08-20T14:01:42;33.20;99.90
64939;DHT22;51453;47.738;7.420;2023-08-20T14:04:08;33.20;99.90
64939;DHT22;51453;47.738;7.420;2023-08-20T14:06:34;33.20;99.90
64939;DHT22;51453;47.738;7.420;2023-08-20T14:09:00;33.00;99.90
64939;DHT22;51453;47.738;7.420;2023-08-20T14:11:26;33.00;99.90
64939;DHT22;51453;47.738;7.420;2023-08-20T14:13:52;32.90;99.90
64939;DHT22;51453;47.738;7.420;2023-08-20T14:16:17;32.90;99.90
64939;DHT22;51453;47.738;7.420;2023-08-20T14:18:43;32.80;99.90
64939;DHT22;51453;47.738;7.420;2023-08-20T14:21:09;32.70;99.90
64939;DHT22;51453;47.738;7.420;2023-08-20T14:23:34;32.70;99.90
64939;DHT22;51453;47.738;7.420;2023-08-20T14:26:00;32.60;99.90
64939;DHT22;51453;47.738;7.420;2023-08-20T14:28:26;32.50;99.90
64939;DHT22;51453;47.738;7.420;2023-08-20T14:30:52;32.50;99.90
64939;DHT22;51453;47.738;7.420;2023-08-20T14:33:20;32.50;99.90
64939;DHT22;51453;47.738;7.420;2023-08-20T14:35:46;32.60;99.90
64939;DHT22;51453;47.738;7.420;2023-08-20T14:38:12;32.60;99.90
64939;DHT22;51453;47.738;7.420;2023-08-20T14:40:39;32.60;99.90
64939;DHT22;51453;47.738;7.420;2023-08-20T14:43:08;32.70;99.90
64939;DHT22;51453;47.738;7.420;2023-08-20T14:45:35;32.80;99.90
64939;DHT22;51453;47.738;7.420;2023-08-20T14:48:00;32.90;99.90
64939;DHT22;51453;47.738;7.420;2023-08-20T14:50:26;33.00;99.90
64939;DHT22;51453;47.738;7.420;2023-08-20T14:52:52;33.10;99.90
64939;DHT22;51453;47.738;7.420;2023-08-20T14:55:21;33.20;99.90
64939;DHT22;51453;47.738;7.420;2023-08-20T14:57:47;33.20;99.90
64939;DHT22;51453;47.738;7.420;2023-08-20T15:00:14;33.30;99.90
64939;DHT22;51453;47.738;7.420;2023-08-20T15:02:46;33.30;99.90
64939;DHT22;51453;47.738;7.420;2023-08-20T15:05:12;33.20;99.90
64939;DHT22;51453;47.738;7.420;2023-08-20T15:07:38;33.30;99.90
64939;DHT22;51453;47.738;7.420;2023-08-20T15:10:04;33.20;99.90
64939;DHT22;51453;47.738;7.420;2023-08-20T15:12:34;33.30;99.90
64939;DHT22;51453;47.738;7.420;2023-08-20T15:15:03;33.40;99.90
64939;DHT22;51453;47.738;7.420;2023-08-20T15:17:29;33.40;99.90
64939;DHT22;51453;47.738;7.420;2023-08-20T15:19:55;33.50;99.90
64939;DHT22;51453;47.738;7.420;2023-08-20T15:22:20;33.50;99.90
64939;DHT22;51453;47.738;7.420;2023-08-20T15:24:46;33.40;99.90
64939;DHT22;51453;47.738;7.420;2023-08-20T15:27:13;33.40;99.90
64939;DHT22;51453;47.738;7.420;2023-08-20T15:29:39;33.40;99.90
64939;DHT22;51453;47.738;7.420;2023-08-20T15:32:04;33.50;99.90
64939;DHT22;51453;47.738;7.420;2023-08-20T15:34:30;33.50;99.90
64939;DHT22;51453;47.738;7.420;2023-08-20T15:36:56;33.40;99.90
64939;DHT22;51453;47.738;7.420;2023-08-20T15:39:21;33.50;99.90
64939;DHT22;51453;47.738;7.420;2023-08-20T15:41:47;33.50;99.90
64939;DHT22;51453;47.738;7.420;2023-08-20T15:44:13;33.50;99.90